Time;durP1;ratioP1;P1;durP2;ratioP2;P2;SDS_P1;SDS_P2;PMS_P1;PMS_P2;Temp;Humidity;BMP_temperature;BMP_pressure;BME280_temperature;BME280_humidity;BME280_pressure;Samples;Min_cycle;Max_cycle;Signal;HPM_P1;HPM_P2
2021/01/05 00:02:16;;;;;;;16.90;10.23;;;;;;;;;;5082282;28;20692;-74
2021/01/05 00:04:41;;;;;;;14.50;9.57;;;;;;;;;;5075984;28;20730;-72
2021/01/05 00:07:07;;;;;;;15.20;9.73;;;;;;;;;;5083650;28;20281;-72
2021/01/05 00:09:33;;;;;;;16.43;9.17;;;;;;;;;;5079133;28;20282;-73
2021/01/05 00:12:18;;;;;;;15.83;9.73;;;;;;;;;;5070984;28;20211;-72
2021/01/05 00:14:47;;;;;;;14.83;9.93;;;;;;;;;;5067872;28;20270;-72
2021/01/05 00:17:13;;;;;;;13.60;9.27;;;;;;;;;;5084709;28;20168;-72
2021/01/05 00:19:39;;;;;;;14.40;9.70;;;;;;;;;;5077260;28;20199;-72
2021/01/05 00:22:04;;;;;;;19.10;9.80;;;;;;;;;;5088237;28;20179;-74
2021/01/05 00:24:30;;;;;;;14.07;9.20;;;;;;;;;;5083047;28;20184;-73
2021/01/05 00:26:56;;;;;;;15.17;10.00;;;;;;;;;;5082398;28;20242;-73
2021/01/05 00:29:21;;;;;;;14.57;9.63;;;;;;;;;;5086607;28;20192;-73
2021/01/05 00:31:47;;;;;;;14.83;9.67;;;;;;;;;;5079007;28;20195;-73
2021/01/05 00:34:14;;;;;;;15.87;9.80;;;;;;;;;;5084629;28;20212;-73
2021/01/05 00:36:39;;;;;;;14.63;10.00;;;;;;;;;;5078156;28;20220;-73
2021/01/05 00:39:05;;;;;;;16.20;10.47;;;;;;;;;;5086647;28;20210;-73
2021/01/05 00:41:32;;;;;;;16.33;10.43;;;;;;;;;;5075261;28;20184;-73
2021/01/05 00:43:57;;;;;;;16.50;10.17;;;;;;;;;;5087025;28;20190;-73
2021/01/05 00:46:22;;;;;;;15.13;9.57;;;;;;;;;;5079663;28;20286;-73
2021/01/05 00:48:48;;;;;;;18.07;10.57;;;;;;;;;;5084890;28;20176;-73
2021/01/05 00:51:14;;;;;;;16.63;10.90;;;;;;;;;;5078614;28;20667;-72
2021/01/05 00:53:40;;;;;;;17.57;10.70;;;;;;;;;;5088227;28;20207;-73
2021/01/05 00:56:06;;;;;;;15.73;9.90;;;;;;;;;;5078351;28;20306;-72
2021/01/05 00:58:32;;;;;;;16.23;9.97;;;;;;;;;;5082671;28;20196;-72
2021/01/05 01:00:58;;;;;;;16.53;10.43;;;;;;;;;;5084514;28;20179;-73
2021/01/05 01:03:24;;;;;;;16.43;10.43;;;;;;;;;;5073661;28;20520;-73
2021/01/05 01:05:50;;;;;;;15.90;10.23;;;;;;;;;;5085750;28;20290;-72
2021/01/05 01:08:17;;;;;;;13.80;9.70;;;;;;;;;;5078123;28;20347;-72
2021/01/05 01:10:42;;;;;;;14.47;10.43;;;;;;;;;;5083612;28;20176;-74
2021/01/05 01:13:09;;;;;;;17.67;10.60;;;;;;;;;;5077622;28;20207;-72
2021/01/05 01:15:36;;;;;;;14.33;9.90;;;;;;;;;;5086671;28;20183;-73
2021/01/05 01:18:02;;;;;;;15.00;9.80;;;;;;;;;;5078300;28;20201;-73
2021/01/05 01:20:27;;;;;;;15.27;9.63;;;;;;;;;;5086537;28;20180;-73
2021/01/05 01:22:52;;;;;;;15.57;9.53;;;;;;;;;;5076023;28;20718;-72
2021/01/05 01:25:18;;;;;;;16.60;9.70;;;;;;;;;;5086240;28;20184;-72
2021/01/05 01:27:44;;;;;;;15.77;10.07;;;;;;;;;;5056680;28;20192;-72
2021/01/05 01:30:10;;;;;;;13.73;9.20;;;;;;;;;;5085269;28;20180;-73
2021/01/05 01:32:36;;;;;;;16.43;9.73;;;;;;;;;;5064636;28;22088;-72
2021/01/05 01:35:04;;;;;;;14.10;9.40;;;;;;;;;;5078794;28;20184;-73
2021/01/05 01:37:29;;;;;;;16.77;9.80;;;;;;;;;;5082401;28;20228;-72
2021/01/05 01:39:55;;;;;;;14.10;9.13;;;;;;;;;;5079714;28;20356;-72
2021/01/05 01:42:22;;;;;;;13.73;9.57;;;;;;;;;;5083686;28;20534;-73
2021/01/05 01:44:48;;;;;;;16.07;9.40;;;;;;;;;;5070267;28;20223;-72
2021/01/05 01:47:21;;;;;;;14.60;9.17;;;;;;;;;;5082949;28;20180;-73
2021/01/05 01:50:09;;;;;;;16.50;9.77;;;;;;;;;;5059569;28;20250;-73
2021/01/05 01:52:56;;;;;;;15.63;9.50;;;;;;;;;;5085366;28;20176;-72
2021/01/05 01:55:40;;;;;;;16.27;9.87;;;;;;;;;;5051868;28;20263;-72
2021/01/05 01:58:27;;;;;;;14.83;9.67;;;;;;;;;;5086574;28;20187;-72
2021/01/05 02:01:29;;;;;;;15.37;9.60;;;;;;;;;;5077841;28;20183;-72
2021/01/05 02:04:11;;;;;;;14.83;9.70;;;;;;;;;;5088868;28;20187;-72
2021/01/05 02:06:58;;;;;;;20.07;11.30;;;;;;;;;;5080989;28;20219;-72
2021/01/05 02:09:37;;;;;;;18.43;10.87;;;;;;;;;;5091422;28;20290;-72
2021/01/05 02:12:29;;;;;;;17.57;10.03;;;;;;;;;;5078364;28;20226;-72
2021/01/05 02:15:00;;;;;;;18.97;11.27;;;;;;;;;;5084533;28;20554;-72
2021/01/05 02:17:38;;;;;;;19.10;11.10;;;;;;;;;;5079420;28;20270;-76
2021/01/05 02:20:15;;;;;;;19.50;11.37;;;;;;;;;;5087479;28;20203;-72
2021/01/05 02:22:58;;;;;;;19.43;11.33;;;;;;;;;;5065991;28;20183;-72
2021/01/05 02:25:42;;;;;;;19.60;11.27;;;;;;;;;;5071172;28;20684;-72
2021/01/05 02:28:11;;;;;;;20.13;11.77;;;;;;;;;;5089209;28;20211;-72
2021/01/05 02:30:41;;;;;;;23.30;13.00;;;;;;;;;;5084419;28;21329;-72
2021/01/05 02:33:19;;;;;;;23.90;13.80;;;;;;;;;;5082611;28;20360;-72
2021/01/05 02:36:06;;;;;;;24.43;12.97;;;;;;;;;;5088406;28;20744;-72
2021/01/05 02:38:53;;;;;;;25.00;13.37;;;;;;;;;;5064873;28;20228;-72
2021/01/05 02:41:30;;;;;;;22.07;12.40;;;;;;;;;;5082188;28;20195;-72
2021/01/05 02:44:16;;;;;;;23.73;13.30;;;;;;;;;;5079986;28;20218;-72
2021/01/05 02:46:52;;;;;;;23.90;14.03;;;;;;;;;;5076635;28;20183;-72
2021/01/05 02:49:44;;;;;;;23.50;12.80;;;;;;;;;;5086447;28;20194;-72
2021/01/05 02:52:47;;;;;;;22.77;12.77;;;;;;;;;;5080651;28;20279;-72
2021/01/05 02:55:31;;;;;;;24.10;13.43;;;;;;;;;;5087582;28;20360;-72
2021/01/05 02:58:45;;;;;;;23.03;13.37;;;;;;;;;;5076495;28;20531;-72
2021/01/05 03:02:02;;;;;;;22.63;13.33;;;;;;;;;;5088985;28;20598;-72
2021/01/05 03:04:27;;;;;;;23.30;13.40;;;;;;;;;;5077569;28;20207;-72
2021/01/05 03:06:57;;;;;;;26.70;14.10;;;;;;;;;;5089559;28;20683;-72
2021/01/05 03:09:59;;;;;;;22.30;13.20;;;;;;;;;;5077515;28;20184;-72
2021/01/05 03:12:30;;;;;;;25.60;14.50;;;;;;;;;;5088763;28;20194;-72
2021/01/05 03:15:40;;;;;;;23.50;13.27;;;;;;;;;;5079760;28;20208;-72
2021/01/05 03:18:21;;;;;;;23.70;13.70;;;;;;;;;;5017679;28;20235;-72
2021/01/05 03:20:53;;;;;;;21.97;13.43;;;;;;;;;;5087463;28;20289;-72
2021/01/05 03:23:20;;;;;;;25.47;14.77;;;;;;;;;;5087750;28;20195;-72
2021/01/05 03:25:49;;;;;;;24.20;13.47;;;;;;;;;;5080706;28;20187;-72
2021/01/05 03:28:20;;;;;;;24.57;14.60;;;;;;;;;;5086303;28;20553;-72
2021/01/05 03:30:56;;;;;;;23.33;14.10;;;;;;;;;;5077308;28;20195;-72
2021/01/05 03:33:21;;;;;;;25.17;14.87;;;;;;;;;;5069709;28;20770;-72
2021/01/05 03:35:47;;;;;;;24.23;13.20;;;;;;;;;;5080342;28;20279;-72
2021/01/05 03:38:12;;;;;;;25.90;14.67;;;;;;;;;;5085678;28;20280;-71
2021/01/05 03:40:38;;;;;;;25.50;14.40;;;;;;;;;;5079739;28;20192;-72
2021/01/05 03:43:03;;;;;;;25.83;14.47;;;;;;;;;;5085782;28;20288;-72
2021/01/05 03:45:31;;;;;;;22.27;12.80;;;;;;;;;;5080281;28;20188;-72
2021/01/05 03:47:57;;;;;;;25.57;14.63;;;;;;;;;;5070962;28;20286;-72
2021/01/05 03:50:23;;;;;;;26.43;13.90;;;;;;;;;;5082576;28;20271;-72
2021/01/05 03:52:49;;;;;;;25.83;15.03;;;;;;;;;;5082950;28;20211;-72
2021/01/05 03:55:16;;;;;;;25.67;14.47;;;;;;;;;;5078906;28;20647;-72
2021/01/05 03:57:42;;;;;;;27.07;14.83;;;;;;;;;;5083269;28;20192;-72
2021/01/05 04:00:14;;;;;;;26.23;14.40;;;;;;;;;;5086844;28;20184;-72
2021/01/05 04:02:39;;;;;;;29.67;14.87;;;;;;;;;;5075102;28;20196;-72
2021/01/05 04:05:05;;;;;;;27.80;15.70;;;;;;;;;;5068626;28;20706;-72
2021/01/05 04:07:30;;;;;;;27.97;15.70;;;;;;;;;;5075377;28;20209;-72
2021/01/05 04:09:56;;;;;;;32.27;15.70;;;;;;;;;;5087645;28;20218;-72
2021/01/05 04:12:21;;;;;;;30.50;15.93;;;;;;;;;;5057756;28;20329;-72
2021/01/05 04:14:46;;;;;;;30.03;15.73;;;;;;;;;;5085842;28;20236;-71
2021/01/05 04:17:12;;;;;;;27.33;15.03;;;;;;;;;;5076264;28;20187;-71
2021/01/05 04:19:38;;;;;;;28.37;15.03;;;;;;;;;;5086162;28;20184;-72
2021/01/05 04:22:03;;;;;;;25.63;14.57;;;;;;;;;;5058632;28;20186;-71
2021/01/05 04:24:28;;;;;;;24.73;14.23;;;;;;;;;;5080014;28;20550;-71
2021/01/05 04:26:54;;;;;;;24.27;13.60;;;;;;;;;;5073331;28;20183;-72
2021/01/05 04:29:19;;;;;;;23.17;12.90;;;;;;;;;;5066148;28;20219;-71
2021/01/05 04:31:45;;;;;;;22.77;13.17;;;;;;;;;;5081332;28;20312;-71
2021/01/05 04:34:13;;;;;;;22.37;13.40;;;;;;;;;;5075265;28;20547;-71
2021/01/05 04:36:38;;;;;;;23.40;12.60;;;;;;;;;;5085386;28;20585;-71
2021/01/05 04:39:06;;;;;;;23.27;13.37;;;;;;;;;;5078349;28;20191;-71
2021/01/05 04:41:45;;;;;;;22.57;13.13;;;;;;;;;;5085192;28;20267;-72
2021/01/05 04:44:14;;;;;;;23.20;12.30;;;;;;;;;;5077262;28;20648;-72
2021/01/05 04:46:47;;;;;;;21.93;12.43;;;;;;;;;;5087205;28;20647;-72
2021/01/05 04:49:37;;;;;;;22.63;12.63;;;;;;;;;;5076086;28;20192;-72
2021/01/05 04:52:10;;;;;;;23.40;12.73;;;;;;;;;;5087498;28;20187;-72
2021/01/05 04:54:47;;;;;;;21.80;12.53;;;;;;;;;;5060779;28;20212;-72
2021/01/05 04:57:18;;;;;;;23.17;13.07;;;;;;;;;;5087131;28;20195;-72
2021/01/05 04:59:52;;;;;;;23.53;13.07;;;;;;;;;;5075951;28;20192;-71
2021/01/05 05:02:29;;;;;;;21.67;12.73;;;;;;;;;;5087774;28;20652;-72
2021/01/05 05:05:01;;;;;;;22.87;13.00;;;;;;;;;;5076132;28;20245;-71
2021/01/05 05:07:53;;;;;;;21.00;13.57;;;;;;;;;;5082720;28;20196;-72
2021/01/05 05:10:29;;;;;;;21.70;13.20;;;;;;;;;;5059786;28;20238;-71
2021/01/05 05:13:28;;;;;;;25.40;14.20;;;;;;;;;;5080783;28;20241;-73
2021/01/05 05:15:56;;;;;;;28.00;14.27;;;;;;;;;;5059804;28;20274;-72
2021/01/05 05:18:34;;;;;;;23.40;13.13;;;;;;;;;;5070079;28;20203;-71
2021/01/05 05:21:13;;;;;;;23.97;13.43;;;;;;;;;;5077713;28;20195;-72
2021/01/05 05:23:54;;;;;;;22.67;13.43;;;;;;;;;;5081407;28;20175;-72
2021/01/05 05:26:34;;;;;;;23.40;14.00;;;;;;;;;;5076354;28;20233;-71
2021/01/05 05:29:08;;;;;;;24.10;14.20;;;;;;;;;;5085701;28;20199;-73
2021/01/05 05:31:34;;;;;;;25.50;14.73;;;;;;;;;;5077553;28;20277;-72
2021/01/05 05:34:03;;;;;;;24.60;15.33;;;;;;;;;;5083017;28;20563;-71
2021/01/05 05:36:45;;;;;;;22.60;13.93;;;;;;;;;;5058240;28;20188;-71
2021/01/05 05:39:22;;;;;;;23.60;14.10;;;;;;;;;;5087756;28;20191;-72
2021/01/05 05:41:59;;;;;;;20.90;12.50;;;;;;;;;;5073364;28;20632;-73
2021/01/05 05:44:55;;;;;;;21.13;13.67;;;;;;;;;;5089218;28;20191;-72
2021/01/05 05:47:29;;;;;;;21.63;12.97;;;;;;;;;;5068597;28;20643;-72
2021/01/05 05:50:02;;;;;;;22.50;13.50;;;;;;;;;;5087709;28;20261;-72
2021/01/05 05:52:54;;;;;;;23.93;13.00;;;;;;;;;;5082571;28;20200;-72
2021/01/05 05:55:30;;;;;;;26.17;13.73;;;;;;;;;;5089471;28;20203;-72
2021/01/05 05:57:57;;;;;;;21.50;12.70;;;;;;;;;;5078766;28;20187;-72
2021/01/05 06:00:35;;;;;;;19.77;12.27;;;;;;;;;;5090432;28;20168;-72
2021/01/05 06:03:02;;;;;;;20.30;12.40;;;;;;;;;;5076514;28;20718;-72
2021/01/05 06:05:35;;;;;;;18.33;12.10;;;;;;;;;;5091671;28;20220;-72
2021/01/05 06:08:02;;;;;;;18.97;11.83;;;;;;;;;;5079227;28;20541;-72
2021/01/05 06:10:27;;;;;;;19.50;12.07;;;;;;;;;;5072590;28;20191;-72
2021/01/05 06:12:54;;;;;;;20.23;11.33;;;;;;;;;;5079614;28;20188;-72
2021/01/05 06:15:20;;;;;;;19.97;11.60;;;;;;;;;;5073127;28;20184;-72
2021/01/05 06:17:47;;;;;;;17.13;10.97;;;;;;;;;;5074174;28;20282;-72
2021/01/05 06:20:13;;;;;;;18.70;11.13;;;;;;;;;;5089498;28;20602;-72
2021/01/05 06:22:38;;;;;;;17.27;11.00;;;;;;;;;;5077317;28;20191;-72
2021/01/05 06:25:05;;;;;;;13.90;9.80;;;;;;;;;;5092713;28;20183;-72
2021/01/05 06:27:31;;;;;;;17.43;10.23;;;;;;;;;;5087082;28;20587;-72
2021/01/05 06:29:56;;;;;;;15.73;10.17;;;;;;;;;;4374375;28;10000721;-72
2021/01/05 06:32:22;;;;;;;15.90;10.13;;;;;;;;;;5083203;28;20195;-72
2021/01/05 06:34:47;;;;;;;15.40;10.00;;;;;;;;;;5075433;28;21931;-72
2021/01/05 06:37:13;;;;;;;15.07;10.03;;;;;;;;;;5065116;28;20223;-72
2021/01/05 06:39:38;;;;;;;13.90;9.53;;;;;;;;;;5071848;28;20191;-72
2021/01/05 06:42:04;;;;;;;13.67;9.03;;;;;;;;;;5065552;28;20187;-72
2021/01/05 06:44:29;;;;;;;15.50;9.53;;;;;;;;;;5076856;28;20596;-72
2021/01/05 06:46:54;;;;;;;15.13;9.70;;;;;;;;;;5073985;28;20200;-72
2021/01/05 06:49:20;;;;;;;14.50;9.93;;;;;;;;;;5074665;28;20192;-72
2021/01/05 06:51:45;;;;;;;13.17;9.60;;;;;;;;;;5082665;28;20238;-72
2021/01/05 06:54:11;;;;;;;15.23;10.10;;;;;;;;;;5055783;28;20192;-72
2021/01/05 06:56:50;;;;;;;15.10;9.80;;;;;;;;;;5083043;28;20188;-72
2021/01/05 06:59:16;;;;;;;13.13;9.57;;;;;;;;;;5076972;28;20754;-72
2021/01/05 07:01:48;;;;;;;14.40;9.80;;;;;;;;;;5071913;28;20598;-72
2021/01/05 07:04:13;;;;;;;16.77;10.43;;;;;;;;;;5069606;28;20188;-72
2021/01/05 07:06:38;;;;;;;13.20;9.60;;;;;;;;;;5071049;28;20229;-72
2021/01/05 07:09:04;;;;;;;14.67;10.07;;;;;;;;;;5084928;28;20244;-72
2021/01/05 07:11:29;;;;;;;14.93;10.23;;;;;;;;;;5069241;28;20211;-72
2021/01/05 07:13:54;;;;;;;15.80;10.10;;;;;;;;;;5084837;28;20310;-72
2021/01/05 07:16:20;;;;;;;14.37;9.93;;;;;;;;;;5058431;28;20636;-73
2021/01/05 07:18:45;;;;;;;13.07;9.37;;;;;;;;;;5085973;28;20211;-72
2021/01/05 07:21:10;;;;;;;15.47;9.97;;;;;;;;;;5077736;28;20188;-73
2021/01/05 07:23:36;;;;;;;16.57;9.80;;;;;;;;;;4733712;28;10000338;-72
2021/01/05 07:26:01;;;;;;;15.23;10.13;;;;;;;;;;5056340;28;20192;-72
2021/01/05 07:28:26;;;;;;;16.40;9.80;;;;;;;;;;5085936;28;20188;-72
2021/01/05 07:30:51;;;;;;;15.17;9.93;;;;;;;;;;5073840;28;20192;-72
2021/01/05 07:33:17;;;;;;;15.80;10.23;;;;;;;;;;5068253;28;20680;-71
2021/01/05 07:35:42;;;;;;;14.83;9.67;;;;;;;;;;5081460;28;20192;-71
2021/01/05 07:38:07;;;;;;;16.03;10.80;;;;;;;;;;5075753;28;20239;-73
2021/01/05 07:40:33;;;;;;;15.90;10.47;;;;;;;;;;5081239;28;20545;-72
2021/01/05 07:42:58;;;;;;;15.53;10.23;;;;;;;;;;5074551;28;20191;-72
2021/01/05 07:45:23;;;;;;;16.23;10.53;;;;;;;;;;5074993;28;20188;-73
2021/01/05 07:47:50;;;;;;;15.43;10.40;;;;;;;;;;5057577;28;20184;-73
2021/01/05 07:50:21;;;;;;;15.83;10.17;;;;;;;;;;5083720;28;20198;-72
2021/01/05 07:52:46;;;;;;;14.63;10.67;;;;;;;;;;5069822;28;20199;-73
2021/01/05 07:55:18;;;;;;;15.60;10.50;;;;;;;;;;5065378;28;20545;-73
2021/01/05 07:57:43;;;;;;;16.70;10.53;;;;;;;;;;5073494;28;20200;-73
2021/01/05 08:00:16;;;;;;;14.83;9.60;;;;;;;;;;5077443;28;20210;-72
2021/01/05 08:02:41;;;;;;;17.77;11.13;;;;;;;;;;5078523;28;22304;-73
2021/01/05 08:05:08;;;;;;;14.33;9.83;;;;;;;;;;5084431;28;20674;-72
2021/01/05 08:07:33;;;;;;;15.97;10.37;;;;;;;;;;5085547;28;20727;-73
2021/01/05 08:09:59;;;;;;;14.93;9.87;;;;;;;;;;5074314;28;20184;-72
2021/01/05 08:12:24;;;;;;;16.53;10.73;;;;;;;;;;5054748;28;20593;-72
2021/01/05 08:14:50;;;;;;;14.67;10.60;;;;;;;;;;5074794;28;20570;-72
2021/01/05 08:17:16;;;;;;;15.40;10.50;;;;;;;;;;5065909;28;20660;-72
2021/01/05 08:19:43;;;;;;;14.53;10.23;;;;;;;;;;5074693;28;20188;-72
2021/01/05 08:22:08;;;;;;;14.07;10.30;;;;;;;;;;5084078;28;20195;-72
2021/01/05 08:24:33;;;;;;;14.77;9.83;;;;;;;;;;5075683;28;20182;-72
2021/01/05 08:26:59;;;;;;;14.73;10.27;;;;;;;;;;5062448;28;20237;-72
2021/01/05 08:29:24;;;;;;;13.97;9.97;;;;;;;;;;5055460;28;20196;-72
2021/01/05 08:31:50;;;;;;;13.93;10.13;;;;;;;;;;5069842;28;20195;-72
2021/01/05 08:34:16;;;;;;;15.10;10.37;;;;;;;;;;5043565;28;20227;-72
2021/01/05 08:36:41;;;;;;;13.97;10.33;;;;;;;;;;5085570;28;20235;-72
2021/01/05 08:39:10;;;;;;;13.53;9.20;;;;;;;;;;5076797;28;20184;-72
2021/01/05 08:41:36;;;;;;;14.07;9.33;;;;;;;;;;5075905;28;20779;-72
2021/01/05 08:44:01;;;;;;;12.63;9.23;;;;;;;;;;5083729;28;20196;-72
2021/01/05 08:46:28;;;;;;;14.00;10.00;;;;;;;;;;5057148;28;20282;-72
2021/01/05 08:48:54;;;;;;;12.87;9.07;;;;;;;;;;5065856;28;20188;-72
2021/01/05 08:51:21;;;;;;;11.90;8.77;;;;;;;;;;5055309;28;20279;-72
2021/01/05 08:53:48;;;;;;;12.90;9.17;;;;;;;;;;5065187;28;20196;-72
2021/01/05 08:56:20;;;;;;;11.43;8.43;;;;;;;;;;5049640;28;20192;-72
2021/01/05 08:58:45;;;;;;;12.17;8.77;;;;;;;;;;5084979;28;20184;-72
2021/01/05 09:01:11;;;;;;;12.00;8.57;;;;;;;;;;5056052;28;20202;-72
2021/01/05 09:03:37;;;;;;;11.80;8.37;;;;;;;;;;5082097;28;20191;-72
2021/01/05 09:06:02;;;;;;;11.17;8.13;;;;;;;;;;5075256;28;20212;-72
2021/01/05 09:08:30;;;;;;;11.17;8.50;;;;;;;;;;5065072;28;20756;-72
2021/01/05 09:11:00;;;;;;;13.67;9.20;;;;;;;;;;5075643;28;20665;-72
2021/01/05 09:13:26;;;;;;;14.53;9.03;;;;;;;;;;5084931;28;20199;-72
2021/01/05 09:15:52;;;;;;;11.93;8.63;;;;;;;;;;5070400;28;20251;-72
2021/01/05 09:18:19;;;;;;;12.40;8.30;;;;;;;;;;5078811;28;20230;-72
2021/01/05 09:20:44;;;;;;;13.33;9.30;;;;;;;;;;5066772;28;20191;-72
2021/01/05 09:23:09;;;;;;;12.07;9.20;;;;;;;;;;5078231;28;20544;-72
2021/01/05 09:25:37;;;;;;;13.87;9.50;;;;;;;;;;5089499;28;20179;-73
2021/01/05 09:28:03;;;;;;;14.77;10.30;;;;;;;;;;5078566;28;20195;-73
2021/01/05 09:30:28;;;;;;;16.57;10.97;;;;;;;;;;5088496;28;20760;-73
2021/01/05 09:32:53;;;;;;;16.20;11.27;;;;;;;;;;5081254;28;20727;-73
2021/01/05 09:35:19;;;;;;;18.47;11.77;;;;;;;;;;5090425;28;20279;-73
2021/01/05 09:37:46;;;;;;;17.57;11.70;;;;;;;;;;5070584;28;20266;-73
2021/01/05 09:40:12;;;;;;;19.63;13.20;;;;;;;;;;5090387;28;20180;-73
2021/01/05 09:42:37;;;;;;;17.97;12.57;;;;;;;;;;5076825;28;20203;-73
2021/01/05 09:45:06;;;;;;;19.07;12.43;;;;;;;;;;5074330;28;20176;-73
2021/01/05 09:47:31;;;;;;;23.27;14.90;;;;;;;;;;5060683;28;20192;-73
2021/01/05 09:49:56;;;;;;;23.87;14.97;;;;;;;;;;5083141;28;20188;-72
2021/01/05 09:52:24;;;;;;;24.63;15.70;;;;;;;;;;5070554;28;20196;-73
2021/01/05 09:54:50;;;;;;;25.47;17.13;;;;;;;;;;5083596;28;20295;-73
2021/01/05 09:57:15;;;;;;;25.33;16.43;;;;;;;;;;5071562;28;20283;-73
2021/01/05 09:59:41;;;;;;;24.87;15.60;;;;;;;;;;5081482;28;20267;-73
2021/01/05 10:02:07;;;;;;;23.87;15.37;;;;;;;;;;5086602;28;20236;-73
2021/01/05 10:04:32;;;;;;;24.23;15.57;;;;;;;;;;5065422;28;20180;-73
2021/01/05 10:06:58;;;;;;;22.00;15.07;;;;;;;;;;5085781;28;20215;-73
2021/01/05 10:09:23;;;;;;;24.00;15.37;;;;;;;;;;5080902;28;20674;-74
2021/01/05 10:11:49;;;;;;;24.83;15.17;;;;;;;;;;5085328;28;20278;-73
2021/01/05 10:14:18;;;;;;;22.17;14.53;;;;;;;;;;5063296;28;20196;-73
2021/01/05 10:16:44;;;;;;;20.73;14.23;;;;;;;;;;5085753;28;20196;-73
2021/01/05 10:19:13;;;;;;;21.47;13.50;;;;;;;;;;5074581;28;20235;-73
2021/01/05 10:21:41;;;;;;;21.90;13.77;;;;;;;;;;5075920;28;20237;-73
2021/01/05 10:24:08;;;;;;;21.23;13.20;;;;;;;;;;5091254;28;20180;-73
2021/01/05 10:26:33;;;;;;;21.63;13.77;;;;;;;;;;5061198;28;20589;-73
2021/01/05 10:28:59;;;;;;;17.77;12.23;;;;;;;;;;5072777;28;20184;-72
2021/01/05 10:31:25;;;;;;;19.70;12.40;;;;;;;;;;5078795;28;20195;-73
2021/01/05 10:33:51;;;;;;;17.23;11.43;;;;;;;;;;5083076;28;20567;-73
2021/01/05 10:36:18;;;;;;;14.73;10.30;;;;;;;;;;5080129;28;20287;-73
2021/01/05 10:38:48;;;;;;;15.63;10.37;;;;;;;;;;5088979;28;20176;-72
2021/01/05 10:41:15;;;;;;;14.73;9.30;;;;;;;;;;5078225;28;20184;-73
2021/01/05 10:43:41;;;;;;;16.93;10.20;;;;;;;;;;5088714;28;20184;-72
2021/01/05 10:46:06;;;;;;;17.10;10.60;;;;;;;;;;5059576;28;20183;-72
2021/01/05 10:48:31;;;;;;;16.53;10.50;;;;;;;;;;5065978;28;20238;-72
2021/01/05 10:50:56;;;;;;;16.37;10.37;;;;;;;;;;5061151;28;20188;-73
2021/01/05 10:53:24;;;;;;;18.77;11.50;;;;;;;;;;5084742;28;20215;-74
2021/01/05 10:55:49;;;;;;;21.70;12.87;;;;;;;;;;5082775;28;20647;-72
2021/01/05 10:58:14;;;;;;;22.53;13.40;;;;;;;;;;5078187;28;20247;-72
2021/01/05 11:00:40;;;;;;;26.23;13.47;;;;;;;;;;5083881;28;20197;-72
2021/01/05 11:03:06;;;;;;;23.63;13.47;;;;;;;;;;5078113;28;20852;-73
2021/01/05 11:05:31;;;;;;;21.80;13.30;;;;;;;;;;5063749;28;20192;-73
2021/01/05 11:07:56;;;;;;;25.50;14.03;;;;;;;;;;4359210;28;10000812;-73
2021/01/05 11:10:22;;;;;;;24.40;13.40;;;;;;;;;;5083169;28;20196;-72
2021/01/05 11:12:47;;;;;;;21.60;12.87;;;;;;;;;;5075555;28;20286;-72
2021/01/05 11:15:15;;;;;;;21.90;12.87;;;;;;;;;;5068800;28;20212;-72
2021/01/05 11:17:43;;;;;;;22.17;12.83;;;;;;;;;;5075921;28;20195;-73
2021/01/05 11:20:10;;;;;;;23.93;13.57;;;;;;;;;;5068977;28;20237;-72
2021/01/05 11:22:35;;;;;;;23.97;13.83;;;;;;;;;;5078083;28;20176;-73
2021/01/05 11:25:01;;;;;;;23.37;13.50;;;;;;;;;;5080351;28;20738;-73
2021/01/05 11:27:26;;;;;;;24.07;14.00;;;;;;;;;;5082218;28;20219;-73
2021/01/05 11:29:51;;;;;;;21.43;13.00;;;;;;;;;;5067792;28;20184;-73
2021/01/05 11:32:18;;;;;;;24.17;14.60;;;;;;;;;;5082857;28;20196;-73
2021/01/05 11:34:44;;;;;;;23.77;15.37;;;;;;;;;;5074807;28;20702;-73
2021/01/05 11:37:18;;;;;;;24.10;14.43;;;;;;;;;;5085140;28;20238;-73
2021/01/05 11:39:46;;;;;;;26.47;15.30;;;;;;;;;;5072468;28;20291;-72
2021/01/05 11:42:13;;;;;;;24.37;14.47;;;;;;;;;;5085200;28;20184;-72
2021/01/05 11:44:39;;;;;;;26.70;15.67;;;;;;;;;;5073914;28;20237;-72
2021/01/05 11:47:04;;;;;;;22.73;15.07;;;;;;;;;;5086281;28;20191;-73
2021/01/05 11:49:30;;;;;;;25.13;15.57;;;;;;;;;;5071704;28;20258;-72
2021/01/05 11:51:56;;;;;;;25.00;15.37;;;;;;;;;;5082414;28;20661;-73
2021/01/05 11:54:23;;;;;;;23.53;14.77;;;;;;;;;;5073135;28;20211;-73
2021/01/05 11:56:49;;;;;;;25.27;14.10;;;;;;;;;;5087508;28;20271;-72
2021/01/05 11:59:15;;;;;;;25.97;15.47;;;;;;;;;;5067006;28;20615;-73
2021/01/05 12:01:41;;;;;;;24.30;13.53;;;;;;;;;;5059086;28;20669;-72
2021/01/05 12:04:09;;;;;;;27.30;14.63;;;;;;;;;;5084757;28;20524;-73
2021/01/05 12:06:34;;;;;;;27.70;15.53;;;;;;;;;;5054568;28;20204;-73
2021/01/05 12:09:00;;;;;;;24.23;14.43;;;;;;;;;;5080387;28;20547;-72
2021/01/05 12:11:28;;;;;;;29.33;15.37;;;;;;;;;;5061294;28;20580;-72
2021/01/05 12:13:54;;;;;;;23.63;13.30;;;;;;;;;;5076343;28;20209;-72
2021/01/05 12:16:35;;;;;;;26.97;14.27;;;;;;;;;;5077241;28;20188;-72
2021/01/05 12:19:07;;;;;;;25.13;13.37;;;;;;;;;;5085175;28;20192;-72
2021/01/05 12:21:35;;;;;;;24.77;13.77;;;;;;;;;;5077625;28;20563;-73
2021/01/05 12:24:00;;;;;;;22.57;12.77;;;;;;;;;;5087299;28;20185;-72
2021/01/05 12:26:26;;;;;;;23.43;12.90;;;;;;;;;;5073245;28;20187;-72
2021/01/05 12:28:52;;;;;;;22.83;14.00;;;;;;;;;;5085647;28;20184;-73
2021/01/05 12:31:17;;;;;;;27.87;13.03;;;;;;;;;;5078225;28;20200;-71
2021/01/05 12:33:42;;;;;;;25.07;13.00;;;;;;;;;;5075422;28;20208;-72
2021/01/05 12:36:08;;;;;;;24.87;14.43;;;;;;;;;;5071717;28;20208;-72
2021/01/05 12:38:35;;;;;;;26.03;14.63;;;;;;;;;;5054942;28;20230;-72
2021/01/05 12:41:01;;;;;;;25.97;15.40;;;;;;;;;;5086394;28;20657;-73
2021/01/05 12:43:26;;;;;;;29.03;15.63;;;;;;;;;;5070478;28;20180;-73
2021/01/05 12:45:52;;;;;;;31.03;16.53;;;;;;;;;;5078509;28;20188;-72
2021/01/05 12:48:17;;;;;;;29.90;15.90;;;;;;;;;;5050419;28;20184;-72
2021/01/05 12:50:46;;;;;;;28.57;16.57;;;;;;;;;;5086098;28;20195;-72
2021/01/05 12:53:11;;;;;;;27.70;15.77;;;;;;;;;;5077516;28;20184;-72
2021/01/05 12:55:36;;;;;;;26.47;15.23;;;;;;;;;;5068495;28;20872;-72
2021/01/05 12:58:02;;;;;;;25.53;14.40;;;;;;;;;;5077984;28;20180;-72
2021/01/05 13:00:27;;;;;;;25.37;14.63;;;;;;;;;;5088315;28;20542;-72
2021/01/05 13:02:52;;;;;;;24.33;13.50;;;;;;;;;;5075857;28;20234;-72
2021/01/05 13:05:18;;;;;;;27.57;14.73;;;;;;;;;;5085592;28;20182;-72
2021/01/05 13:07:44;;;;;;;30.17;13.83;;;;;;;;;;5079805;28;21018;-72
2021/01/05 13:10:15;;;;;;;24.87;13.90;;;;;;;;;;5066980;28;20643;-72
2021/01/05 13:12:42;;;;;;;23.03;13.20;;;;;;;;;;5086960;28;20554;-72
2021/01/05 13:15:11;;;;;;;25.03;14.27;;;;;;;;;;5078805;28;20211;-72
2021/01/05 13:17:41;;;;;;;26.23;14.50;;;;;;;;;;5051180;28;20189;-72
2021/01/05 13:20:10;;;;;;;25.57;13.83;;;;;;;;;;5076320;28;20188;-73
2021/01/05 13:22:36;;;;;;;26.40;13.90;;;;;;;;;;5064370;28;20177;-72
2021/01/05 13:25:03;;;;;;;24.63;13.93;;;;;;;;;;5071050;28;20184;-77
2021/01/05 13:27:28;;;;;;;26.43;15.20;;;;;;;;;;5084397;28;20200;-72
2021/01/05 13:29:54;;;;;;;25.33;13.43;;;;;;;;;;5059952;28;20192;-72
2021/01/05 13:32:24;;;;;;;28.37;14.70;;;;;;;;;;5082668;28;20184;-72
2021/01/05 13:34:50;;;;;;;29.13;14.57;;;;;;;;;;5079035;28;20215;-72
2021/01/05 13:37:17;;;;;;;27.80;15.03;;;;;;;;;;5067276;28;20228;-72
2021/01/05 13:39:43;;;;;;;25.83;13.47;;;;;;;;;;5078733;28;20188;-72
2021/01/05 13:42:13;;;;;;;30.30;14.70;;;;;;;;;;5078914;28;20543;-72
2021/01/05 13:44:39;;;;;;;25.57;14.00;;;;;;;;;;5074819;28;20184;-71
2021/01/05 13:47:07;;;;;;;29.03;14.30;;;;;;;;;;5068865;28;20708;-72
2021/01/05 13:49:33;;;;;;;30.40;14.50;;;;;;;;;;5084640;28;20173;-71
2021/01/05 13:52:11;;;;;;;24.60;13.70;;;;;;;;;;5075781;28;20188;-72
2021/01/05 13:54:37;;;;;;;30.13;14.10;;;;;;;;;;5083571;28;20206;-71
2021/01/05 13:57:04;;;;;;;25.77;13.23;;;;;;;;;;5077595;28;20679;-71
2021/01/05 13:59:29;;;;;;;23.73;12.93;;;;;;;;;;5089693;28;20183;-71
2021/01/05 14:02:03;;;;;;;27.50;12.87;;;;;;;;;;5074618;28;20188;-71
2021/01/05 14:04:29;;;;;;;27.00;14.47;;;;;;;;;;5079828;28;20659;-71
2021/01/05 14:06:57;;;;;;;24.63;13.03;;;;;;;;;;5079394;28;20295;-72
2021/01/05 14:09:23;;;;;;;27.37;13.60;;;;;;;;;;5072006;28;20188;-71
2021/01/05 14:11:50;;;;;;;26.43;13.70;;;;;;;;;;5061768;28;20187;-71
2021/01/05 14:14:16;;;;;;;28.17;14.77;;;;;;;;;;5089788;28;20559;-72
2021/01/05 14:16:41;;;;;;;30.77;15.00;;;;;;;;;;5080124;28;20213;-72
2021/01/05 14:19:07;;;;;;;27.63;14.17;;;;;;;;;;5070800;28;20552;-72
2021/01/05 14:21:36;;;;;;;26.00;14.33;;;;;;;;;;5071842;28;20508;-72
2021/01/05 14:24:04;;;;;;;28.13;14.70;;;;;;;;;;5089276;28;20181;-72
2021/01/05 14:26:31;;;;;;;28.63;13.87;;;;;;;;;;5082749;28;20164;-72
2021/01/05 14:28:56;;;;;;;24.37;14.77;;;;;;;;;;5084328;28;20181;-72
2021/01/05 14:31:25;;;;;;;24.83;14.17;;;;;;;;;;5084019;28;20931;-73